Terminal Aerodrome Forecast
Issued by NWS

Home | Current Version | Previous Version | Text Only | Print | Product List | Glossary On
Versions: 1 2 3 4 5 6 7 8 9 10 11 12
543
FTPA31 PHFO 061734
TAFHJR
TAF
PHJR 061734Z 0618/0718 VRB03KT P6SM VCSH FEW025 SCT035 BKN050
     FM062100 24007KT P6SM VCSH FEW025 SCT035 BKN045
     FM070500 33015KT 5SM SHRA SCT015 BKN022 OVC050
     FM070900 35015G25KT P6SM FEW025 BKN050=

USA.gov is the U.S. government's official web portal to all federal, state and local government web resources and services.